createdAt,value
2018-12-06T00:00:50.492Z,2.66
2018-12-06T00:02:50.666Z,2.65
2018-12-06T00:04:49.916Z,2.65
2018-12-06T00:06:50.142Z,2.65
2018-12-06T00:08:50.124Z,2.64
2018-12-06T00:10:50.049Z,2.65
2018-12-06T00:12:50.069Z,2.67
2018-12-06T00:14:50.057Z,2.66
2018-12-06T00:16:50.307Z,2.66
2018-12-06T00:18:50.267Z,2.66
2018-12-06T00:20:50.268Z,2.70
2018-12-06T00:22:50.266Z,2.70
2018-12-06T00:24:50.290Z,2.69
2018-12-06T00:26:50.528Z,2.68
2018-12-06T00:28:50.569Z,2.68
2018-12-06T00:30:50.514Z,2.67
2018-12-06T00:32:50.509Z,2.67
2018-12-06T00:34:49.897Z,2.69
2018-12-06T00:36:50.043Z,2.69
2018-12-06T00:38:50.004Z,2.68
2018-12-06T00:40:49.926Z,2.68
2018-12-06T00:42:49.907Z,2.68
2018-12-06T00:44:49.899Z,2.67
2018-12-06T00:46:50.053Z,2.70
2018-12-06T00:48:50.102Z,2.72
2018-12-06T00:50:50.124Z,2.73
2018-12-06T00:52:50.094Z,2.73
2018-12-06T00:54:50.075Z,2.73
2018-12-06T00:56:50.270Z,2.73
2018-12-06T00:58:50.224Z,2.74
2018-12-06T01:00:50.266Z,2.73
2018-12-06T01:02:50.244Z,2.73
2018-12-06T01:04:50.564Z,2.75
2018-12-06T01:06:49.852Z,2.76
2018-12-06T01:08:49.876Z,2.76
2018-12-06T01:10:49.971Z,2.76
2018-12-06T01:12:49.915Z,2.78
2018-12-06T01:14:49.915Z,2.79
2018-12-06T01:16:50.048Z,2.79
2018-12-06T01:18:50.104Z,2.83
2018-12-06T01:20:50.151Z,2.86
2018-12-06T01:22:50.129Z,2.89
2018-12-06T01:24:50.102Z,2.90
2018-12-06T01:26:50.230Z,2.89
2018-12-06T01:28:50.193Z,2.92
2018-12-06T01:30:50.243Z,2.92
2018-12-06T01:32:50.224Z,2.92
2018-12-06T01:34:50.549Z,2.93
2018-12-06T01:36:49.711Z,2.92
2018-12-06T01:38:50.662Z,2.91
2018-12-06T01:40:50.665Z,2.92
2018-12-06T01:42:49.820Z,2.92
2018-12-06T01:44:49.816Z,2.93
2018-12-06T01:46:50.126Z,2.91
2018-12-06T01:48:50.124Z,2.91
2018-12-06T01:50:50.109Z,2.92
2018-12-06T01:52:50.101Z,2.95
2018-12-06T01:54:50.143Z,2.97
2018-12-06T01:56:50.294Z,2.99
2018-12-06T01:58:50.233Z,2.99
2018-12-06T02:00:50.250Z,2.99
2018-12-06T02:02:50.244Z,3.01
2018-12-06T02:04:50.639Z,3.01
2018-12-06T02:06:50.033Z,3.00
2018-12-06T02:08:50.045Z,2.99
2018-12-06T02:10:50.037Z,3.00
2018-12-06T02:12:50.275Z,3.01
2018-12-06T02:14:50.236Z,2.99
2018-12-06T02:16:50.460Z,2.98
2018-12-06T02:18:50.516Z,2.99
2018-12-06T02:20:50.559Z,2.99
2018-12-06T02:22:49.708Z,2.99
2018-12-06T02:24:49.889Z,2.99
2018-12-06T02:26:50.263Z,2.98
2018-12-06T02:28:50.339Z,2.98
2018-12-06T02:30:50.351Z,2.96
2018-12-06T02:32:50.439Z,2.96
2018-12-06T02:34:49.766Z,2.95
2018-12-06T02:36:50.187Z,2.95
2018-12-06T02:38:50.202Z,2.95
2018-12-06T02:40:50.221Z,2.93
2018-12-06T02:42:50.270Z,2.94
2018-12-06T02:44:50.240Z,2.94
2018-12-06T02:46:50.457Z,2.95
2018-12-06T02:48:50.519Z,2.97
2018-12-06T02:50:50.556Z,2.97
2018-12-06T02:52:50.542Z,2.97
2018-12-06T02:54:50.567Z,2.95
2018-12-06T02:56:49.833Z,2.96
2018-12-06T02:58:49.887Z,2.94
2018-12-06T03:00:49.880Z,2.94
2018-12-06T03:02:49.910Z,2.95
2018-12-06T03:04:50.228Z,2.95
2018-12-06T03:06:50.435Z,2.98
2018-12-06T03:08:49.757Z,2.98
2018-12-06T03:10:49.778Z,2.99
2018-12-06T03:12:49.902Z,2.97
2018-12-06T03:14:49.914Z,2.97
2018-12-06T03:16:49.996Z,2.95
2018-12-06T03:18:49.992Z,2.94
2018-12-06T03:20:49.961Z,2.94
2018-12-06T03:22:49.990Z,2.95
2018-12-06T03:24:49.987Z,2.96
2018-12-06T03:26:50.293Z,2.96
2018-12-06T03:28:50.288Z,2.96
2018-12-06T03:30:50.487Z,2.97
2018-12-06T03:32:50.478Z,2.98
2018-12-06T03:34:49.928Z,3.00
2018-12-06T03:36:50.025Z,3.00
2018-12-06T03:38:50.088Z,2.98
2018-12-06T03:40:50.084Z,2.96
2018-12-06T03:42:50.198Z,2.96
2018-12-06T03:44:50.219Z,2.96
2018-12-06T03:46:50.464Z,2.94
2018-12-06T03:48:50.437Z,2.91
2018-12-06T03:50:50.450Z,2.90
2018-12-06T03:52:50.422Z,2.91
2018-12-06T03:54:50.392Z,2.90
2018-12-06T03:56:50.604Z,2.89
2018-12-06T03:58:50.548Z,2.89
2018-12-06T04:00:49.735Z,2.87
2018-12-06T04:02:49.722Z,2.87
2018-12-06T04:04:50.189Z,2.86
2018-12-06T04:06:50.323Z,2.84
2018-12-06T04:08:50.422Z,2.80
2018-12-06T04:10:50.463Z,2.79
2018-12-06T04:12:50.468Z,2.78
2018-12-06T04:14:50.484Z,2.78
2018-12-06T04:16:49.871Z,2.78
2018-12-06T04:18:49.940Z,2.78
2018-12-06T04:20:50.053Z,2.79
2018-12-06T04:22:50.030Z,2.79
2018-12-06T04:24:50.018Z,2.78
2018-12-06T04:26:50.226Z,2.78
2018-12-06T04:28:50.302Z,2.79
2018-12-06T04:30:50.296Z,2.78
2018-12-06T04:32:50.400Z,2.78
2018-12-06T04:34:49.914Z,2.78
2018-12-06T04:36:50.076Z,2.76
2018-12-06T04:38:50.214Z,2.74
2018-12-06T04:40:50.297Z,2.74
2018-12-06T04:42:50.352Z,2.78
2018-12-06T04:44:50.336Z,2.78
2018-12-06T04:46:50.577Z,2.77
2018-12-06T04:48:50.523Z,2.76
2018-12-06T04:50:50.453Z,2.76
2018-12-06T04:52:50.464Z,2.77
2018-12-06T04:54:50.382Z,2.76
2018-12-06T04:56:50.574Z,2.78
2018-12-06T04:58:50.493Z,2.80
2018-12-06T05:00:50.492Z,2.82
2018-12-06T05:02:50.610Z,2.83
2018-12-06T05:04:49.884Z,2.83
2018-12-06T05:06:50.178Z,2.85
2018-12-06T05:08:50.128Z,2.86
2018-12-06T05:10:50.109Z,2.87
2018-12-06T05:12:50.072Z,2.86
2018-12-06T05:14:50.054Z,2.88
2018-12-06T05:16:50.239Z,2.88
2018-12-06T05:18:50.296Z,2.85
2018-12-06T05:20:50.295Z,2.84
2018-12-06T05:22:50.253Z,2.83
2018-12-06T05:24:50.231Z,2.82
2018-12-06T05:26:49.862Z,2.83
2018-12-06T05:28:49.890Z,2.82
2018-12-06T05:30:49.987Z,2.82
2018-12-06T05:32:49.930Z,2.82
2018-12-06T05:34:50.208Z,2.85
2018-12-06T05:36:50.263Z,2.84
2018-12-06T05:38:50.280Z,2.81
2018-12-06T05:40:50.336Z,2.82
2018-12-06T05:42:50.299Z,2.81
2018-12-06T05:44:50.303Z,2.79
2018-12-06T05:46:50.487Z,2.78
2018-12-06T05:48:50.450Z,2.77
2018-12-06T05:50:50.521Z,2.74
2018-12-06T05:52:50.495Z,2.72
2018-12-06T05:54:50.549Z,2.74
2018-12-06T05:56:49.769Z,2.78
2018-12-06T05:58:49.833Z,2.79
2018-12-06T06:00:49.830Z,2.83
2018-12-06T06:02:49.848Z,2.84
2018-12-06T06:04:50.184Z,2.83
2018-12-06T06:06:50.475Z,2.83
2018-12-06T06:08:50.531Z,2.83
2018-12-06T06:10:50.504Z,2.84
2018-12-06T06:12:50.509Z,2.84
2018-12-06T06:14:50.557Z,2.86
2018-12-06T06:16:49.876Z,2.84
2018-12-06T06:18:49.961Z,2.84
2018-12-06T06:20:49.943Z,2.84
2018-12-06T06:22:49.994Z,2.87
2018-12-06T06:24:49.992Z,2.86
2018-12-06T06:26:50.201Z,2.86
2018-12-06T06:28:50.213Z,2.86
2018-12-06T06:30:50.243Z,2.83
2018-12-06T06:32:50.272Z,2.83
2018-12-06T06:34:50.443Z,2.85
2018-12-06T06:36:50.132Z,2.83
2018-12-06T06:38:50.172Z,2.82
2018-12-06T06:40:50.238Z,2.81
2018-12-06T06:42:50.297Z,2.82
2018-12-06T06:44:50.334Z,2.82
2018-12-06T06:46:50.674Z,2.84
2018-12-06T06:48:50.667Z,2.86
2018-12-06T06:50:49.790Z,2.90
2018-12-06T06:52:50.806Z,2.93
2018-12-06T06:54:49.813Z,2.95
2018-12-06T06:56:50.189Z,3.01
2018-12-06T06:58:50.162Z,3.02
2018-12-06T07:00:50.154Z,3.02
2018-12-06T07:02:50.125Z,3.03
2018-12-06T07:04:50.470Z,3.05
2018-12-06T07:06:49.719Z,3.05
2018-12-06T07:08:49.808Z,3.04
2018-12-06T07:10:49.829Z,3.03
2018-12-06T07:12:49.966Z,3.03
2018-12-06T07:14:49.977Z,3.05
2018-12-06T07:16:50.107Z,3.09
2018-12-06T07:18:50.069Z,3.11
2018-12-06T07:20:50.030Z,3.14
2018-12-06T07:22:50.064Z,3.14
2018-12-06T07:24:50.152Z,3.16
2018-12-06T07:26:50.369Z,3.15
2018-12-06T07:28:50.405Z,3.15
2018-12-06T07:30:50.340Z,3.17
2018-12-06T07:32:50.343Z,3.17
2018-12-06T07:34:49.747Z,3.17
2018-12-06T07:36:50.011Z,3.16
2018-12-06T07:38:50.004Z,3.18
2018-12-06T07:40:50.003Z,3.19
2018-12-06T07:42:50.062Z,3.21
2018-12-06T07:44:50.073Z,3.22
2018-12-06T07:46:50.256Z,3.24
2018-12-06T07:48:50.321Z,3.29
2018-12-06T07:50:50.339Z,3.32
2018-12-06T07:52:50.390Z,3.37
2018-12-06T07:54:50.452Z,3.39
2018-12-06T07:56:50.658Z,3.40
2018-12-06T07:58:49.737Z,3.38
2018-12-06T08:00:49.767Z,3.38
2018-12-06T08:02:49.812Z,3.40
2018-12-06T08:04:50.236Z,3.43
2018-12-06T08:06:50.493Z,3.44
2018-12-06T08:08:50.544Z,3.44
2018-12-06T08:10:50.500Z,3.43
2018-12-06T08:12:50.584Z,3.46
2018-12-06T08:14:49.700Z,3.52
2018-12-06T08:16:49.875Z,3.52
2018-12-06T08:18:50.016Z,3.67
2018-12-06T08:20:49.996Z,3.71
2018-12-06T08:22:50.034Z,3.75
2018-12-06T08:24:50.039Z,3.76
2018-12-06T08:26:50.176Z,3.76
2018-12-06T08:28:50.250Z,3.73
2018-12-06T08:30:50.263Z,3.74
2018-12-06T08:32:50.368Z,3.80
2018-12-06T08:34:50.569Z,3.83
2018-12-06T08:36:49.893Z,3.87
2018-12-06T08:38:49.937Z,3.93
2018-12-06T08:40:49.933Z,3.97
2018-12-06T08:42:49.865Z,4.00
2018-12-06T08:44:49.850Z,4.03
2018-12-06T08:46:50.012Z,4.08
2018-12-06T08:48:49.986Z,4.13
2018-12-06T08:50:50.045Z,4.22
2018-12-06T08:52:50.023Z,4.22
2018-12-06T08:54:50.051Z,4.18
2018-12-06T08:56:50.221Z,4.19
2018-12-06T08:58:50.194Z,4.15
2018-12-06T09:00:50.153Z,4.12
2018-12-06T09:02:50.178Z,4.04
2018-12-06T09:04:50.499Z,3.99
2018-12-06T09:06:49.737Z,3.98
2018-12-06T09:08:49.857Z,3.94
2018-12-06T09:10:52.193Z,3.96
2018-12-06T09:12:50.268Z,3.98
2018-12-06T09:14:50.246Z,4.01
2018-12-06T09:16:50.380Z,4.01
2018-12-06T09:18:50.382Z,3.99
2018-12-06T09:20:50.358Z,3.98
2018-12-06T09:22:50.438Z,3.97
2018-12-06T09:24:50.410Z,3.93
2018-12-06T09:26:49.763Z,3.91
2018-12-06T09:28:49.790Z,3.89
2018-12-06T09:30:49.791Z,3.91
2018-12-06T09:32:49.904Z,3.96
2018-12-06T09:34:50.367Z,3.97
2018-12-06T09:36:50.624Z,3.97
2018-12-06T09:38:49.671Z,4.00
2018-12-06T09:40:49.732Z,4.03
2018-12-06T09:42:49.861Z,4.02
2018-12-06T09:44:49.853Z,4.03
2018-12-06T09:46:50.166Z,4.07
2018-12-06T09:48:50.314Z,4.07
2018-12-06T09:50:50.359Z,4.09
2018-12-06T09:52:50.414Z,4.08
2018-12-06T09:54:50.487Z,4.05
2018-12-06T09:56:49.698Z,4.06
2018-12-06T09:58:50.681Z,4.08
2018-12-06T10:00:49.762Z,4.17
2018-12-06T10:02:49.740Z,4.21
2018-12-06T10:04:50.132Z,4.24
2018-12-06T10:06:50.420Z,4.29
2018-12-06T10:08:50.433Z,4.35
2018-12-06T10:10:50.384Z,4.45
2018-12-06T10:12:50.407Z,4.51
2018-12-06T10:14:50.344Z,4.59
2018-12-06T10:16:50.565Z,4.64
2018-12-06T10:18:50.506Z,4.62
2018-12-06T10:20:50.514Z,4.61
2018-12-06T10:22:50.460Z,4.62
2018-12-06T10:24:50.552Z,4.71
2018-12-06T10:26:49.700Z,4.79
2018-12-06T10:28:49.775Z,4.82
2018-12-06T10:30:49.819Z,4.86
2018-12-06T10:32:49.914Z,4.91
2018-12-06T10:34:53.895Z,4.93
2018-12-06T10:36:50.128Z,4.98
2018-12-06T10:38:50.156Z,4.97
2018-12-06T10:40:50.125Z,5.00
2018-12-06T10:42:50.201Z,5.02
2018-12-06T10:44:50.214Z,5.04
2018-12-06T10:46:50.542Z,5.05
2018-12-06T10:48:50.531Z,5.08
2018-12-06T10:50:50.533Z,5.13
2018-12-06T10:52:50.493Z,5.19
2018-12-06T10:54:50.516Z,5.26
2018-12-06T10:56:49.849Z,5.32
2018-12-06T10:58:49.867Z,5.38
2018-12-06T11:00:57.715Z,5.40
2018-12-06T11:02:49.873Z,5.40
2018-12-06T11:04:50.004Z,5.43
2018-12-06T11:06:50.197Z,5.42
2018-12-06T11:08:50.310Z,5.43
2018-12-06T11:10:50.261Z,5.44
2018-12-06T11:12:50.244Z,5.44
2018-12-06T11:14:50.232Z,5.47
2018-12-06T11:16:50.425Z,5.50
2018-12-06T11:18:50.379Z,5.59
2018-12-06T11:20:50.378Z,5.69
2018-12-06T11:22:50.302Z,5.72
2018-12-06T11:24:50.354Z,5.86
2018-12-06T11:26:50.488Z,5.95
2018-12-06T11:28:50.473Z,5.99
2018-12-06T11:30:50.475Z,6.04
2018-12-06T11:32:50.696Z,6.12
2018-12-06T11:34:50.204Z,6.16
2018-12-06T11:36:50.321Z,6.26
2018-12-06T11:38:50.348Z,6.30
2018-12-06T11:40:50.419Z,6.32
2018-12-06T11:42:50.422Z,6.29
2018-12-06T11:44:50.411Z,6.29
2018-12-06T11:46:49.711Z,6.33
2018-12-06T11:48:49.730Z,6.35
2018-12-06T11:50:49.840Z,6.37
2018-12-06T11:52:49.827Z,6.33
2018-12-06T11:54:49.806Z,6.30
2018-12-06T11:56:49.992Z,6.26
2018-12-06T11:58:49.954Z,6.27
2018-12-06T12:00:49.931Z,6.34
2018-12-06T12:02:49.888Z,6.38
2018-12-06T12:04:50.459Z,6.42
2018-12-06T12:06:49.820Z,6.48
2018-12-06T12:08:49.920Z,6.54
2018-12-06T12:10:49.930Z,6.57
2018-12-06T12:12:49.905Z,6.58
2018-12-06T12:14:51.345Z,6.58
2018-12-06T12:16:50.540Z,6.56
2018-12-06T12:18:50.579Z,6.54
2018-12-06T12:20:50.528Z,6.59
2018-12-06T12:22:50.673Z,6.67
2018-12-06T12:24:49.689Z,6.68
2018-12-06T12:26:49.916Z,6.76
2018-12-06T12:28:50.001Z,6.78
2018-12-06T12:30:50.040Z,6.88
2018-12-06T12:32:50.062Z,7.01
2018-12-06T12:34:50.342Z,7.04
2018-12-06T12:36:50.552Z,7.11
2018-12-06T12:38:50.554Z,7.14
2018-12-06T12:40:50.526Z,7.19
2018-12-06T12:42:50.523Z,7.19
2018-12-06T12:44:50.565Z,7.25
2018-12-06T12:46:49.814Z,7.28
2018-12-06T12:48:49.984Z,7.25
2018-12-06T12:50:50.363Z,7.20
2018-12-06T12:52:50.436Z,7.18
2018-12-06T12:54:50.395Z,7.20
2018-12-06T12:56:49.792Z,7.23
2018-12-06T12:58:49.819Z,7.24
2018-12-06T13:00:49.841Z,7.20
2018-12-06T13:02:49.867Z,7.16
2018-12-06T13:04:50.290Z,7.16
2018-12-06T13:06:50.402Z,7.15
2018-12-06T13:08:50.401Z,7.15
2018-12-06T13:10:50.428Z,7.14
2018-12-06T13:12:50.378Z,7.09
2018-12-06T13:14:50.328Z,7.06
2018-12-06T13:16:50.490Z,7.05
2018-12-06T13:18:50.444Z,7.10
2018-12-06T13:20:50.388Z,7.11
2018-12-06T13:22:50.352Z,7.22
2018-12-06T13:24:50.320Z,7.26
2018-12-06T13:26:50.433Z,7.28
2018-12-06T13:28:50.356Z,7.30
2018-12-06T13:30:50.346Z,7.31
2018-12-06T13:32:50.271Z,7.32
2018-12-06T13:34:50.789Z,7.38
2018-12-06T13:36:50.115Z,7.42
2018-12-06T13:38:50.205Z,7.49
2018-12-06T13:40:50.247Z,7.52
2018-12-06T13:42:50.248Z,7.55
2018-12-06T13:44:50.237Z,7.60
2018-12-06T13:46:50.416Z,7.62
2018-12-06T13:48:50.407Z,7.66
2018-12-06T13:50:50.368Z,7.67
2018-12-06T13:52:50.391Z,7.66
2018-12-06T13:54:50.455Z,7.63
2018-12-06T13:56:50.599Z,7.64
2018-12-06T13:58:50.540Z,7.62
2018-12-06T14:00:52.027Z,7.62
2018-12-06T14:02:50.463Z,7.66
2018-12-06T14:04:49.797Z,7.66
2018-12-06T14:06:50.119Z,7.68
2018-12-06T14:08:50.107Z,7.71
2018-12-06T14:10:50.124Z,7.71
2018-12-06T14:12:50.161Z,7.76
2018-12-06T14:14:50.430Z,7.81
2018-12-06T14:16:50.488Z,7.86
2018-12-06T14:18:50.441Z,7.82
2018-12-06T14:20:50.431Z,7.78
2018-12-06T14:22:50.493Z,7.74
2018-12-06T14:24:50.519Z,7.73
2018-12-06T14:26:49.703Z,7.73
2018-12-06T14:28:49.756Z,7.72
2018-12-06T14:30:49.721Z,7.67
2018-12-06T14:32:49.728Z,7.63
2018-12-06T14:34:50.139Z,7.62
2018-12-06T14:37:02.553Z,7.62
2018-12-06T14:38:50.302Z,7.60
2018-12-06T14:40:50.250Z,7.60
2018-12-06T14:42:50.233Z,7.62
2018-12-06T14:44:50.208Z,7.63
2018-12-06T14:46:50.372Z,7.63
2018-12-06T14:48:50.315Z,7.65
2018-12-06T14:50:51.255Z,7.68
2018-12-06T14:52:50.280Z,7.70
2018-12-06T14:54:50.310Z,7.71
2018-12-06T14:56:50.560Z,7.75
2018-12-06T14:58:50.471Z,7.77
2018-12-06T15:00:50.497Z,7.77
2018-12-06T15:02:50.526Z,7.77
2018-12-06T15:04:49.935Z,7.77
2018-12-06T15:06:50.047Z,7.77
2018-12-06T15:08:50.042Z,7.78
2018-12-06T15:10:50.030Z,7.80
2018-12-06T15:12:50.021Z,7.82
2018-12-06T15:14:50.129Z,7.81
2018-12-06T15:16:50.271Z,7.79
2018-12-06T15:18:50.339Z,7.78
2018-12-06T15:20:50.460Z,7.75
2018-12-06T15:22:50.381Z,7.75
2018-12-06T15:24:50.447Z,7.73
2018-12-06T15:26:49.738Z,7.70
2018-12-06T15:28:49.712Z,7.69
2018-12-06T15:30:49.737Z,7.67
2018-12-06T15:32:49.719Z,7.65
2018-12-06T15:34:49.779Z,7.68
2018-12-06T15:36:50.019Z,7.68
2018-12-06T15:38:50.100Z,7.69
2018-12-06T15:40:50.119Z,7.78
2018-12-06T15:42:50.135Z,7.84
2018-12-06T15:44:50.102Z,7.81
2018-12-06T15:46:50.237Z,7.81
2018-12-06T15:48:50.303Z,7.84
2018-12-06T15:50:50.304Z,7.86
2018-12-06T15:52:50.288Z,7.86
2018-12-06T15:54:50.312Z,7.97
2018-12-06T15:56:50.511Z,8.05
2018-12-06T15:58:50.444Z,8.13
2018-12-06T16:00:50.482Z,8.15
2018-12-06T16:02:50.474Z,8.24
2018-12-06T16:04:49.853Z,8.35
2018-12-06T16:06:50.052Z,8.39
2018-12-06T16:08:50.200Z,8.48
2018-12-06T16:10:50.187Z,8.50
2018-12-06T16:12:50.201Z,8.55
2018-12-06T16:14:50.193Z,8.55
2018-12-06T16:16:50.391Z,8.58
2018-12-06T16:18:50.362Z,8.59
2018-12-06T16:20:50.318Z,8.59
2018-12-06T16:22:50.265Z,8.67
2018-12-06T16:24:50.271Z,8.76
2018-12-06T16:26:50.429Z,8.81
2018-12-06T16:28:50.562Z,8.86
2018-12-06T16:30:50.529Z,8.88
2018-12-06T16:32:50.629Z,8.90
2018-12-06T16:34:50.041Z,8.94
2018-12-06T16:36:50.190Z,8.98
2018-12-06T16:38:50.197Z,9.01
2018-12-06T16:40:50.233Z,9.07
2018-12-06T16:42:50.251Z,9.09
2018-12-06T16:44:50.189Z,9.09
2018-12-06T16:46:50.339Z,9.12
2018-12-06T16:48:50.326Z,9.10
2018-12-06T16:50:50.299Z,9.07
2018-12-06T16:52:50.313Z,9.08
2018-12-06T16:54:50.360Z,9.06
2018-12-06T16:56:50.533Z,9.00
2018-12-06T16:58:50.561Z,8.99
2018-12-06T17:00:50.535Z,8.92
2018-12-06T17:02:50.478Z,8.85
2018-12-06T17:04:49.923Z,8.70
2018-12-06T17:06:50.063Z,8.65
2018-12-06T17:08:50.079Z,8.53
2018-12-06T17:10:50.102Z,8.49
2018-12-06T17:12:50.135Z,8.47
2018-12-06T17:14:50.181Z,8.40
2018-12-06T17:16:50.444Z,8.39
2018-12-06T17:18:50.423Z,8.40
2018-12-06T17:20:50.386Z,8.34
2018-12-06T17:22:50.433Z,8.32
2018-12-06T17:24:50.341Z,8.34
2018-12-06T17:26:50.546Z,8.39
2018-12-06T17:28:50.492Z,8.46
2018-12-06T17:30:50.515Z,8.48
2018-12-06T17:32:50.455Z,8.40
2018-12-06T17:34:50.675Z,8.39
2018-12-06T17:36:51.148Z,8.41
2018-12-06T17:38:50.103Z,8.47
2018-12-06T17:40:50.054Z,8.48
2018-12-06T17:42:50.095Z,8.48
2018-12-06T17:44:50.081Z,8.46
2018-12-06T17:46:50.285Z,8.39
2018-12-06T17:48:50.203Z,8.34
2018-12-06T17:50:50.191Z,8.31
2018-12-06T17:52:50.269Z,8.37
2018-12-06T17:54:50.295Z,8.41
2018-12-06T17:56:50.459Z,8.45
2018-12-06T17:58:50.501Z,8.49
2018-12-06T18:00:50.508Z,8.49
2018-12-06T18:02:50.448Z,8.52
2018-12-06T18:04:49.723Z,8.54
2018-12-06T18:06:49.979Z,8.55
2018-12-06T18:08:49.890Z,8.54
2018-12-06T18:10:49.972Z,8.59
2018-12-06T18:12:49.935Z,8.61
2018-12-06T18:14:50.048Z,8.64
2018-12-06T18:16:50.293Z,8.65
2018-12-06T18:18:50.293Z,8.65
2018-12-06T18:20:50.316Z,8.65
2018-12-06T18:22:50.355Z,8.65
2018-12-06T18:24:50.404Z,8.67
2018-12-06T18:26:50.541Z,8.70
2018-12-06T18:28:50.547Z,8.73
2018-12-06T18:30:50.519Z,8.71
2018-12-06T18:32:50.481Z,8.70
2018-12-06T18:34:49.880Z,8.71
2018-12-06T18:36:50.201Z,8.72
2018-12-06T18:38:50.164Z,8.73
2018-12-06T18:40:50.171Z,8.73
2018-12-06T18:42:50.134Z,8.75
2018-12-06T18:44:50.205Z,8.78
2018-12-06T18:46:50.375Z,8.80
2018-12-06T18:48:50.341Z,8.80
2018-12-06T18:50:50.529Z,8.77
2018-12-06T18:52:50.511Z,8.76
2018-12-06T18:54:50.498Z,8.77
2018-12-06T18:56:49.791Z,8.76
2018-12-06T18:58:49.781Z,8.75
2018-12-06T19:00:49.803Z,8.76
2018-12-06T19:02:49.896Z,8.75
2018-12-06T19:04:50.321Z,8.73
2018-12-06T19:06:50.524Z,8.73
2018-12-06T19:08:50.546Z,8.70
2018-12-06T19:10:50.540Z,8.69
2018-12-06T19:12:50.684Z,8.72
2018-12-06T19:14:49.706Z,8.73
2018-12-06T19:16:50.051Z,8.73
2018-12-06T19:18:50.089Z,8.74
2018-12-06T19:20:50.076Z,8.74
2018-12-06T19:22:50.083Z,8.73
2018-12-06T19:24:50.085Z,8.74
2018-12-06T19:26:50.476Z,8.75
2018-12-06T19:28:50.493Z,8.74
2018-12-06T19:30:50.536Z,8.70
2018-12-06T19:33:03.409Z,8.72
2018-12-06T19:34:49.816Z,8.71
2018-12-06T19:36:49.999Z,8.70
2018-12-06T19:38:50.059Z,8.71
2018-12-06T19:40:50.103Z,8.73
2018-12-06T19:42:50.118Z,8.72
2018-12-06T19:44:50.155Z,8.75
2018-12-06T19:46:50.257Z,8.75
2018-12-06T19:48:50.250Z,8.74
2018-12-06T19:50:50.212Z,8.73
2018-12-06T19:52:50.280Z,8.73
2018-12-06T19:54:50.347Z,8.75
2018-12-06T19:56:50.514Z,8.76
2018-12-06T19:58:50.569Z,8.73
2018-12-06T20:00:50.472Z,8.74
2018-12-06T20:02:50.557Z,8.75
2018-12-06T20:04:49.919Z,8.74
2018-12-06T20:06:50.196Z,8.73
2018-12-06T20:08:50.143Z,8.71
2018-12-06T20:10:50.162Z,8.69
2018-12-06T20:12:50.115Z,8.70
2018-12-06T20:14:50.104Z,8.70
2018-12-06T20:16:50.290Z,8.72
2018-12-06T20:18:50.246Z,8.71
2018-12-06T20:20:50.217Z,8.69
2018-12-06T20:22:50.145Z,8.69
2018-12-06T20:24:50.120Z,8.69
2018-12-06T20:26:50.341Z,8.74
2018-12-06T20:28:50.348Z,8.74
2018-12-06T20:30:50.329Z,8.77
2018-12-06T20:32:50.325Z,8.77
2018-12-06T20:34:50.491Z,8.76
2018-12-06T20:36:49.778Z,8.78
2018-12-06T20:38:49.797Z,8.80
2018-12-06T20:40:49.811Z,8.79
2018-12-06T20:42:49.795Z,8.76
2018-12-06T20:44:49.856Z,8.74
2018-12-06T20:46:50.110Z,8.71
2018-12-06T20:48:50.059Z,8.71
2018-12-06T20:50:50.046Z,8.71
2018-12-06T20:52:50.018Z,8.70
2018-12-06T20:54:49.957Z,8.70
2018-12-06T20:56:50.163Z,8.70
2018-12-06T20:58:50.202Z,8.73
2018-12-06T21:00:50.191Z,8.73
2018-12-06T21:02:50.255Z,8.74
2018-12-06T21:04:50.457Z,8.76
2018-12-06T21:06:49.779Z,8.72
2018-12-06T21:08:49.867Z,8.71
2018-12-06T21:10:49.826Z,8.72
2018-12-06T21:12:49.946Z,8.71
2018-12-06T21:14:50.008Z,8.72
2018-12-06T21:16:50.224Z,8.73
2018-12-06T21:18:50.203Z,8.78
2018-12-06T21:20:50.237Z,8.82
2018-12-06T21:22:50.274Z,8.84
2018-12-06T21:24:50.233Z,8.86
2018-12-06T21:26:50.498Z,8.85
2018-12-06T21:28:50.464Z,8.85
2018-12-06T21:30:50.533Z,8.85
2018-12-06T21:32:50.521Z,8.84
2018-12-06T21:34:49.945Z,8.82
2018-12-06T21:36:50.128Z,8.80
2018-12-06T21:38:50.045Z,8.78
2018-12-06T21:40:50.105Z,8.75
2018-12-06T21:42:50.098Z,8.73
2018-12-06T21:44:50.121Z,8.70
2018-12-06T21:46:50.334Z,8.70
2018-12-06T21:48:50.345Z,8.70
2018-12-06T21:50:50.377Z,8.71
2018-12-06T21:52:50.387Z,8.67
2018-12-06T21:54:50.546Z,8.65
2018-12-06T21:56:49.849Z,8.63
2018-12-06T21:58:49.890Z,8.61
2018-12-06T22:00:50.092Z,8.61
2018-12-06T22:02:50.079Z,8.63
2018-12-06T22:04:50.255Z,8.65
2018-12-06T22:06:50.426Z,8.68
2018-12-06T22:08:50.481Z,8.73
2018-12-06T22:10:50.436Z,8.76
2018-12-06T22:12:50.480Z,8.76
2018-12-06T22:14:50.428Z,8.77
2018-12-06T22:16:50.622Z,8.78
2018-12-06T22:18:50.553Z,8.78
2018-12-06T22:20:50.567Z,8.78
2018-12-06T22:22:49.719Z,8.83
2018-12-06T22:24:49.738Z,8.84
2018-12-06T22:26:49.931Z,8.86
2018-12-06T22:28:49.895Z,8.87
2018-12-06T22:30:49.985Z,8.90
2018-12-06T22:32:50.026Z,8.92
2018-12-06T22:34:50.294Z,8.94
2018-12-06T22:36:50.424Z,8.94
2018-12-06T22:38:50.468Z,8.96
2018-12-06T22:40:50.441Z,8.99
2018-12-06T22:42:50.458Z,8.99
2018-12-06T22:44:50.390Z,8.97
2018-12-06T22:46:50.603Z,8.97
2018-12-06T22:48:50.564Z,8.98
2018-12-06T22:50:50.549Z,8.99
2018-12-06T22:52:50.536Z,8.99
2018-12-06T22:54:50.513Z,8.98
2018-12-06T22:56:49.769Z,8.97
2018-12-06T22:58:49.812Z,8.98
2018-12-06T23:00:49.904Z,8.98
2018-12-06T23:02:49.926Z,8.97
2018-12-06T23:04:50.189Z,8.97
2018-12-06T23:06:50.450Z,8.97
2018-12-06T23:08:50.471Z,8.96
2018-12-06T23:10:50.583Z,8.97
2018-12-06T23:12:49.687Z,8.98
2018-12-06T23:14:49.814Z,8.97
2018-12-06T23:16:49.925Z,8.96
2018-12-06T23:18:49.906Z,8.94
2018-12-06T23:20:49.891Z,8.94
2018-12-06T23:22:49.986Z,8.95
2018-12-06T23:24:49.999Z,8.95
2018-12-06T23:26:50.299Z,8.96
2018-12-06T23:28:50.247Z,8.97
2018-12-06T23:30:50.206Z,8.99
2018-12-06T23:32:50.188Z,8.98
2018-12-06T23:34:50.460Z,8.96
2018-12-06T23:36:49.749Z,8.95
2018-12-06T23:38:49.713Z,8.94
2018-12-06T23:40:49.725Z,8.93
2018-12-06T23:42:49.695Z,8.89
2018-12-06T23:44:49.717Z,8.86
2018-12-06T23:46:49.989Z,8.85
2018-12-06T23:48:49.998Z,8.87
2018-12-06T23:50:50.014Z,8.89
2018-12-06T23:52:50.145Z,8.90
2018-12-06T23:54:50.203Z,8.94
2018-12-06T23:56:50.463Z,8.96
2018-12-06T23:58:50.515Z,8.97
